KBE weather

Public forecast

Using degrees Fahrenheit for public forecast. Weather courtesy of forecast.io.

Closest aviation weather report (METAR) to Bell Island Hot Springs Seaplane Base

Closest report is Ketchikan International Airport, 34.8 nm (64.4 km) S. Retrieved 2020/08/14 01:29 UTC (8 minutes ago):

PAKT 140129Z 12007KT 3SM -RA BR FEW005 BKN011 OVC023 12/12 A3012

Closest aviation forecast (TAF) to Bell Island Hot Springs Seaplane Base

Closest forecast is Ketchikan International Airport, 34.8 nm (64.4 km) S. Retrieved 2020-08-14 00:40 UTC (57 minutes ago):

TAF PAKT 132337Z 1400/1424 14008KT P6SM VCSH SCT025 OVC050 FM140500 14008KT 4SM -RA SCT007 OVC012 FM141200 14012G20KT 2SM -RA BR SCT005 OVC007 FM142100 14011KT 3SM -RA BR SCT007 OVC015 AMD LTD TO CLD VIS AND WIND 1406/1415